createdAt,value
2017-02-06T00:00:29.145Z,0
2017-02-06T00:01:39.145Z,0
2017-02-06T00:02:49.829Z,0
2017-02-06T00:04:00.088Z,0
2017-02-06T00:05:10.730Z,0
2017-02-06T00:06:21.366Z,0
2017-02-06T00:07:32.364Z,0
2017-02-06T00:08:42.612Z,0
2017-02-06T00:09:53.253Z,0
2017-02-06T00:11:03.892Z,0
2017-02-06T00:12:13.362Z,0
2017-02-06T00:13:23.880Z,0
2017-02-06T00:14:34.525Z,0
2017-02-06T00:15:44.789Z,0
2017-02-06T00:16:55.046Z,0
2017-02-06T00:18:05.295Z,0
2017-02-06T00:19:15.414Z,0
2017-02-06T00:20:25.268Z,0
2017-02-06T00:21:35.909Z,0
2017-02-06T00:22:45.754Z,0
2017-02-06T00:23:56.436Z,0
2017-02-06T00:25:06.925Z,0
2017-02-06T00:26:16.389Z,0
2017-02-06T00:27:27.026Z,0
2017-02-06T00:28:37.265Z,0
2017-02-06T00:29:47.898Z,0
2017-02-06T00:30:58.685Z,0
2017-02-06T00:32:09.326Z,0
2017-02-06T00:33:19.563Z,0
2017-02-06T00:34:29.819Z,0
2017-02-06T00:35:40.447Z,0
2017-02-06T00:36:50.987Z,0
2017-02-06T00:38:01.638Z,0
2017-02-06T00:39:11.903Z,0
2017-02-06T00:40:22.161Z,0
2017-02-06T00:41:32.794Z,0
2017-02-06T00:42:43.674Z,0
2017-02-06T00:43:54.306Z,0
2017-02-06T00:45:04.944Z,0
2017-02-06T00:46:15.624Z,0
2017-02-06T00:47:25.915Z,0
2017-02-06T00:48:36.804Z,0
2017-02-06T00:49:47.438Z,0
2017-02-06T00:50:57.683Z,0
2017-02-06T00:52:07.927Z,0
2017-02-06T00:53:18.558Z,0
2017-02-06T00:54:29.730Z,0
2017-02-06T00:55:40.375Z,0
2017-02-06T00:56:51.009Z,0
2017-02-06T00:58:01.646Z,0
2017-02-06T00:59:12.200Z,0
2017-02-06T01:00:23.082Z,0
2017-02-06T01:01:33.722Z,0
2017-02-06T01:02:44.366Z,0
2017-02-06T01:03:54.992Z,0
2017-02-06T01:05:05.637Z,0
2017-02-06T01:06:16.530Z,0
2017-02-06T01:07:26.787Z,0
2017-02-06T01:08:37.425Z,0
2017-02-06T01:09:48.064Z,0
2017-02-06T01:10:58.712Z,0
2017-02-06T01:12:09.213Z,0
2017-02-06T01:13:19.464Z,0
2017-02-06T01:14:30.107Z,0
2017-02-06T01:15:39.962Z,0
2017-02-06T01:16:50.596Z,0
2017-02-06T01:18:01.171Z,0
2017-02-06T01:19:11.802Z,0
2017-02-06T01:20:22.430Z,0
2017-02-06T01:21:32.683Z,0
2017-02-06T01:22:43.330Z,0
2017-02-06T01:23:53.893Z,0
2017-02-06T01:25:04.133Z,0
2017-02-06T01:26:14.380Z,0
2017-02-06T01:27:24.232Z,0
2017-02-06T01:28:34.885Z,0
2017-02-06T01:29:44.999Z,0
2017-02-06T01:30:55.632Z,0
2017-02-06T01:32:06.272Z,0
2017-02-06T01:33:16.531Z,0
2017-02-06T01:34:26.385Z,0
2017-02-06T01:35:36.890Z,0
2017-02-06T01:36:47.132Z,0
2017-02-06T01:37:57.397Z,0
2017-02-06T01:39:08.033Z,0
2017-02-06T01:40:18.668Z,0
2017-02-06T01:41:29.565Z,0
2017-02-06T01:42:39.420Z,0
2017-02-06T01:43:50.063Z,0
2017-02-06T01:45:00.701Z,0
2017-02-06T01:46:10.950Z,0
2017-02-06T01:47:21.841Z,0
2017-02-06T01:48:32.774Z,0
2017-02-06T01:49:43.429Z,0
2017-02-06T01:50:53.699Z,0
2017-02-06T01:52:04.336Z,0
2017-02-06T01:53:14.845Z,0
2017-02-06T01:54:25.489Z,0
2017-02-06T01:55:36.137Z,0
2017-02-06T01:56:46.385Z,0
2017-02-06T01:57:56.648Z,0
2017-02-06T01:59:07.525Z,0
2017-02-06T02:00:18.161Z,0
2017-02-06T02:01:27.623Z,0
2017-02-06T02:02:37.869Z,0
2017-02-06T02:03:47.725Z,0
2017-02-06T02:04:57.858Z,0
2017-02-06T02:06:07.716Z,0
2017-02-06T02:07:17.960Z,0
2017-02-06T02:08:28.219Z,0
2017-02-06T02:09:37.693Z,0
2017-02-06T02:10:48.202Z,0
2017-02-06T02:11:58.843Z,0
2017-02-06T02:13:09.478Z,0
2017-02-06T02:14:19.335Z,0
2017-02-06T02:15:29.970Z,0
2017-02-06T02:16:40.931Z,0
2017-02-06T02:17:50.798Z,0
2017-02-06T02:19:01.443Z,0
2017-02-06T02:20:11.730Z,0
2017-02-06T02:21:22.415Z,0
2017-02-06T02:22:33.357Z,0
2017-02-06T02:23:43.623Z,0
2017-02-06T02:24:54.260Z,0
2017-02-06T02:26:04.120Z,0
2017-02-06T02:27:14.776Z,0
2017-02-06T02:28:25.674Z,0
2017-02-06T02:29:35.924Z,0
2017-02-06T02:30:46.565Z,0
2017-02-06T02:31:56.422Z,0
2017-02-06T02:33:06.285Z,0
2017-02-06T02:34:17.177Z,0
2017-02-06T02:35:26.698Z,0
2017-02-06T02:36:36.554Z,0
2017-02-06T02:37:46.803Z,0
2017-02-06T02:38:57.451Z,0
2017-02-06T02:40:08.372Z,0
2017-02-06T02:41:18.622Z,0
2017-02-06T02:42:29.289Z,0
2017-02-06T02:43:39.942Z,0
2017-02-06T02:44:50.594Z,0
2017-02-06T02:46:01.099Z,0
2017-02-06T02:47:11.351Z,0
2017-02-06T02:48:22.009Z,0
2017-02-06T02:49:32.655Z,0
2017-02-06T02:50:43.288Z,0
2017-02-06T02:51:53.787Z,0
2017-02-06T02:53:04.035Z,0
2017-02-06T02:54:14.303Z,0
2017-02-06T02:55:24.194Z,0
2017-02-06T02:56:34.872Z,0
2017-02-06T02:57:45.840Z,0
2017-02-06T02:58:56.088Z,0
2017-02-06T03:00:05.574Z,0
2017-02-06T03:01:15.429Z,0
2017-02-06T03:02:26.068Z,0
2017-02-06T03:03:36.576Z,0
2017-02-06T03:04:46.812Z,0
2017-02-06T03:05:57.468Z,0
2017-02-06T03:07:07.325Z,0
2017-02-06T03:08:17.986Z,0
2017-02-06T03:09:28.491Z,0
2017-02-06T03:10:39.139Z,0
2017-02-06T03:11:48.982Z,0
2017-02-06T03:12:59.231Z,0
2017-02-06T03:14:09.489Z,0
2017-02-06T03:15:19.993Z,0
2017-02-06T03:16:30.636Z,0
2017-02-06T03:17:40.880Z,0
2017-02-06T03:18:51.518Z,0
2017-02-06T03:20:01.785Z,0
2017-02-06T03:21:11.900Z,0
2017-02-06T03:22:22.539Z,0
2017-02-06T03:23:33.171Z,0
2017-02-06T03:24:43.419Z,0
2017-02-06T03:25:54.055Z,0
2017-02-06T03:27:04.674Z,0
2017-02-06T03:28:15.302Z,0
2017-02-06T03:29:25.651Z,0
2017-02-06T03:30:36.322Z,0
2017-02-06T03:31:46.584Z,0
2017-02-06T03:32:56.283Z,0
2017-02-06T03:34:06.535Z,0
2017-02-06T03:35:16.423Z,0
2017-02-06T03:36:26.268Z,0
2017-02-06T03:37:36.809Z,0
2017-02-06T03:38:47.691Z,0
2017-02-06T03:39:57.979Z,0
2017-02-06T03:41:07.840Z,0
2017-02-06T03:42:17.334Z,0
2017-02-06T03:43:27.885Z,0
2017-02-06T03:44:38.388Z,0
2017-02-06T03:45:48.664Z,0
2017-02-06T03:46:58.926Z,0
2017-02-06T03:48:08.794Z,0
2017-02-06T03:49:19.053Z,0
2017-02-06T03:50:29.632Z,0
2017-02-06T03:51:39.929Z,0
2017-02-06T03:52:50.573Z,0
2017-02-06T03:54:01.232Z,0
2017-02-06T03:55:11.905Z,0
2017-02-06T03:56:22.409Z,0
2017-02-06T03:57:32.648Z,0
2017-02-06T03:58:42.122Z,0
2017-02-06T03:59:51.971Z,0
2017-02-06T04:01:02.228Z,0
2017-02-06T04:02:12.389Z,0
2017-02-06T04:03:22.626Z,0
2017-02-06T04:04:33.286Z,0
2017-02-06T04:05:43.535Z,0
2017-02-06T04:06:54.162Z,0
2017-02-06T04:08:05.047Z,0
2017-02-06T04:09:15.701Z,0
2017-02-06T04:10:26.338Z,0
2017-02-06T04:11:36.591Z,0
2017-02-06T04:12:46.443Z,0
2017-02-06T04:13:57.345Z,0
2017-02-06T04:15:07.213Z,0
2017-02-06T04:16:17.876Z,0
2017-02-06T04:17:28.124Z,0
2017-02-06T04:18:37.985Z,0
2017-02-06T04:19:48.112Z,0
2017-02-06T04:20:58.755Z,0
2017-02-06T04:22:08.609Z,0
2017-02-06T04:23:18.903Z,0
2017-02-06T04:24:28.753Z,0
2017-02-06T04:25:39.662Z,0
2017-02-06T04:26:50.325Z,0
2017-02-06T04:28:00.190Z,0
2017-02-06T04:29:10.851Z,0
2017-02-06T04:30:21.098Z,0
2017-02-06T04:31:31.911Z,0
2017-02-06T04:32:41.764Z,0
2017-02-06T04:33:52.421Z,0
2017-02-06T04:35:02.673Z,0
2017-02-06T04:36:11.763Z,0
2017-02-06T04:37:22.320Z,0
2017-02-06T04:38:32.998Z,0
2017-02-06T04:39:43.244Z,0
2017-02-06T04:40:53.491Z,0
2017-02-06T04:42:04.157Z,0
2017-02-06T04:43:14.701Z,0
2017-02-06T04:44:25.356Z,0
2017-02-06T04:45:35.606Z,0
2017-02-06T04:46:44.687Z,0
2017-02-06T04:47:54.954Z,0
2017-02-06T04:49:05.484Z,0
2017-02-06T04:50:15.731Z,0
2017-02-06T04:51:25.594Z,0
2017-02-06T04:52:35.839Z,0
2017-02-06T04:53:46.489Z,0
2017-02-06T04:54:56.994Z,0
2017-02-06T04:56:06.491Z,0
2017-02-06T04:57:16.341Z,0
2017-02-06T04:58:26.984Z,0
2017-02-06T04:59:36.457Z,0
2017-02-06T05:00:47.335Z,0
2017-02-06T05:01:57.617Z,0
2017-02-06T05:03:08.242Z,0
2017-02-06T05:04:18.900Z,0
2017-02-06T05:05:28.757Z,0
2017-02-06T05:06:39.107Z,0
2017-02-06T05:07:49.274Z,0
2017-02-06T05:08:59.143Z,0
2017-02-06T05:10:09.029Z,0
2017-02-06T05:11:19.668Z,0
2017-02-06T05:12:30.561Z,0
2017-02-06T05:13:40.420Z,0
2017-02-06T05:14:51.073Z,0
2017-02-06T05:16:01.761Z,0
2017-02-06T05:17:12.022Z,0
2017-02-06T05:18:22.568Z,0
2017-02-06T05:19:32.817Z,0
2017-02-06T05:20:43.464Z,0
2017-02-06T05:21:53.709Z,0
2017-02-06T05:23:04.344Z,0
2017-02-06T05:24:15.243Z,0
2017-02-06T05:25:25.491Z,0
2017-02-06T05:26:36.133Z,0
2017-02-06T05:27:45.990Z,0
2017-02-06T05:28:55.852Z,0
2017-02-06T05:30:06.788Z,0
2017-02-06T05:31:17.443Z,0
2017-02-06T05:32:27.712Z,0
2017-02-06T05:33:37.967Z,0
2017-02-06T05:34:47.822Z,0
2017-02-06T05:35:57.945Z,0
2017-02-06T05:37:07.843Z,0
2017-02-06T05:38:17.698Z,0
2017-02-06T05:39:27.585Z,0
2017-02-06T05:40:37.829Z,0
2017-02-06T05:41:48.766Z,0
2017-02-06T05:42:59.430Z,0
2017-02-06T05:44:09.970Z,0
2017-02-06T05:45:20.216Z,0
2017-02-06T05:46:30.108Z,0
2017-02-06T05:47:40.227Z,0
2017-02-06T05:48:50.874Z,0
2017-02-06T05:50:01.523Z,0
2017-02-06T05:51:11.783Z,0
2017-02-06T05:52:22.429Z,0
2017-02-06T05:53:33.326Z,0
2017-02-06T05:54:43.605Z,0
2017-02-06T05:55:53.859Z,0
2017-02-06T05:57:04.110Z,0
2017-02-06T05:58:14.764Z,0
2017-02-06T05:59:25.821Z,0
2017-02-06T06:00:36.476Z,0
2017-02-06T06:01:46.358Z,0
2017-02-06T06:02:56.994Z,0
2017-02-06T06:04:07.262Z,0
2017-02-06T06:05:18.201Z,0
2017-02-06T06:06:28.077Z,0
2017-02-06T06:07:38.324Z,0
2017-02-06T06:08:49.257Z,0
2017-02-06T06:09:59.931Z,4
2017-02-06T06:11:10.113Z,4
2017-02-06T06:12:20.375Z,4
2017-02-06T06:13:30.627Z,4
2017-02-06T06:14:41.264Z,4
2017-02-06T06:15:51.120Z,4
2017-02-06T06:17:01.232Z,4
2017-02-06T06:18:11.540Z,4
2017-02-06T06:19:21.410Z,4
2017-02-06T06:20:32.050Z,4
2017-02-06T06:21:42.316Z,4
2017-02-06T06:22:52.828Z,4
2017-02-06T06:24:03.486Z,4
2017-02-06T06:25:13.755Z,4
2017-02-06T06:26:24.409Z,4
2017-02-06T06:27:34.657Z,4
2017-02-06T06:28:45.610Z,4
2017-02-06T06:29:55.868Z,4
2017-02-06T06:31:06.509Z,4
2017-02-06T06:32:16.766Z,4
2017-02-06T06:33:27.021Z,8
2017-02-06T06:34:37.938Z,8
2017-02-06T06:35:48.566Z,8
2017-02-06T06:36:58.867Z,4
2017-02-06T06:38:09.513Z,4
2017-02-06T06:39:18.986Z,8
2017-02-06T06:40:29.920Z,8
2017-02-06T06:41:39.847Z,8
2017-02-06T06:42:49.720Z,8
2017-02-06T06:43:59.637Z,12
2017-02-06T06:45:09.921Z,12
2017-02-06T06:46:20.435Z,12
2017-02-06T06:47:30.692Z,12
2017-02-06T06:48:40.956Z,12
2017-02-06T06:49:51.615Z,16
2017-02-06T06:51:02.259Z,16
2017-02-06T06:52:12.809Z,20
2017-02-06T06:53:23.486Z,20
2017-02-06T06:54:33.363Z,24
2017-02-06T06:55:43.632Z,24
2017-02-06T06:56:54.279Z,24
2017-02-06T06:58:05.261Z,32
2017-02-06T06:59:15.515Z,36
2017-02-06T07:00:25.008Z,36
2017-02-06T07:01:35.714Z,40
2017-02-06T07:02:45.847Z,44
2017-02-06T07:03:56.809Z,48
2017-02-06T07:05:07.488Z,52
2017-02-06T07:06:18.129Z,52
2017-02-06T07:07:28.412Z,60
2017-02-06T07:08:39.049Z,68
2017-02-06T07:09:49.160Z,72
2017-02-06T07:10:59.801Z,76
2017-02-06T07:12:09.640Z,84
2017-02-06T07:13:20.283Z,92
2017-02-06T07:14:30.935Z,96
2017-02-06T07:15:41.884Z,100
2017-02-06T07:16:52.558Z,108
2017-02-06T07:18:02.831Z,116
2017-02-06T07:19:13.469Z,120
2017-02-06T07:20:23.705Z,128
2017-02-06T07:21:34.607Z,136
2017-02-06T07:22:44.084Z,144
2017-02-06T07:23:54.739Z,152
2017-02-06T07:25:05.393Z,160
2017-02-06T07:26:15.258Z,168
2017-02-06T07:27:26.133Z,184
2017-02-06T07:28:36.786Z,192
2017-02-06T07:29:46.643Z,200
2017-02-06T07:30:56.908Z,212
2017-02-06T07:32:07.162Z,228
2017-02-06T07:33:17.678Z,240
2017-02-06T07:34:27.947Z,252
2017-02-06T07:35:38.586Z,264
2017-02-06T07:36:49.227Z,276
2017-02-06T07:37:59.481Z,288
2017-02-06T07:39:09.599Z,300
2017-02-06T07:40:19.455Z,312
2017-02-06T07:41:30.100Z,312
2017-02-06T07:42:39.575Z,308
2017-02-06T07:43:49.855Z,312
2017-02-06T07:45:00.015Z,316
2017-02-06T07:46:10.266Z,316
2017-02-06T07:47:20.548Z,324
2017-02-06T07:48:30.418Z,332
2017-02-06T07:49:40.323Z,340
2017-02-06T07:50:50.495Z,348
2017-02-06T07:52:00.363Z,356
2017-02-06T07:53:11.011Z,372
2017-02-06T07:54:21.315Z,388
2017-02-06T07:55:31.974Z,404
2017-02-06T07:56:42.485Z,424
2017-02-06T07:57:53.125Z,444
2017-02-06T07:59:03.776Z,460
2017-02-06T08:00:13.644Z,476
2017-02-06T08:01:24.288Z,492
2017-02-06T08:02:34.814Z,504
2017-02-06T08:03:45.073Z,516
2017-02-06T08:04:55.324Z,536
2017-02-06T08:06:05.573Z,548
2017-02-06T08:07:16.212Z,560
2017-02-06T08:08:27.111Z,576
2017-02-06T08:09:37.755Z,592
2017-02-06T08:10:48.393Z,608
2017-02-06T08:11:58.656Z,620
2017-02-06T08:13:09.296Z,628
2017-02-06T08:14:19.422Z,632
2017-02-06T08:15:29.677Z,632
2017-02-06T08:16:39.553Z,636
2017-02-06T08:17:49.800Z,640
2017-02-06T08:19:00.443Z,656
2017-02-06T08:20:11.342Z,676
2017-02-06T08:21:21.630Z,700
2017-02-06T08:22:32.451Z,716
2017-02-06T08:23:43.112Z,720
2017-02-06T08:24:53.661Z,724
2017-02-06T08:26:04.179Z,732
2017-02-06T08:27:14.824Z,748
2017-02-06T08:28:25.084Z,756
2017-02-06T08:29:35.721Z,768
2017-02-06T08:30:46.390Z,784
2017-02-06T08:31:56.992Z,792
2017-02-06T08:33:07.256Z,792
2017-02-06T08:34:17.918Z,808
2017-02-06T08:35:28.183Z,832
2017-02-06T08:36:38.833Z,840
2017-02-06T08:37:49.383Z,856
2017-02-06T08:39:00.037Z,876
2017-02-06T08:40:10.338Z,904
2017-02-06T08:41:20.976Z,904
2017-02-06T08:42:30.450Z,912
2017-02-06T08:43:41.397Z,916
2017-02-06T08:44:51.734Z,908
2017-02-06T08:46:01.981Z,900
2017-02-06T08:47:12.235Z,900
2017-02-06T08:48:22.862Z,904
2017-02-06T08:49:33.807Z,904
2017-02-06T08:50:44.060Z,896
2017-02-06T08:51:54.332Z,896
2017-02-06T08:53:04.583Z,900
2017-02-06T08:54:15.217Z,904
2017-02-06T08:55:26.106Z,904
2017-02-06T08:56:36.370Z,904
2017-02-06T08:57:47.007Z,916
2017-02-06T08:58:57.663Z,920
2017-02-06T09:00:08.307Z,928
2017-02-06T09:01:19.130Z,948
2017-02-06T09:02:29.388Z,956
2017-02-06T09:03:39.295Z,960
2017-02-06T09:04:49.557Z,968
2017-02-06T09:05:59.413Z,968
2017-02-06T09:07:09.576Z,968
2017-02-06T09:08:19.830Z,964
2017-02-06T09:09:30.765Z,968
2017-02-06T09:10:41.032Z,980
2017-02-06T09:11:51.270Z,996
2017-02-06T09:13:01.776Z,1016
2017-02-06T09:14:12.034Z,1036
2017-02-06T09:15:21.937Z,1044
2017-02-06T09:16:31.798Z,1028
2017-02-06T09:17:41.696Z,1008
2017-02-06T09:18:52.221Z,980
2017-02-06T09:20:02.080Z,960
2017-02-06T09:21:12.722Z,936
2017-02-06T09:22:23.260Z,920
2017-02-06T09:23:33.562Z,912
2017-02-06T09:24:44.095Z,900
2017-02-06T09:25:54.745Z,900
2017-02-06T09:27:04.674Z,900
2017-02-06T09:28:14.933Z,904
2017-02-06T09:29:25.180Z,904
2017-02-06T09:30:35.282Z,916
2017-02-06T09:31:45.137Z,928
2017-02-06T09:32:55.788Z,932
2017-02-06T09:34:06.053Z,928
2017-02-06T09:35:16.724Z,924
2017-02-06T09:36:27.603Z,920
2017-02-06T09:37:38.246Z,920
2017-02-06T09:38:48.531Z,916
2017-02-06T09:39:59.185Z,912
2017-02-06T09:41:09.844Z,916
2017-02-06T09:42:20.076Z,932
2017-02-06T09:43:30.323Z,936
2017-02-06T09:44:40.569Z,948
2017-02-06T09:45:51.214Z,932
2017-02-06T09:47:01.463Z,936
2017-02-06T09:48:11.630Z,932
2017-02-06T09:49:22.285Z,944
2017-02-06T09:50:32.928Z,944
2017-02-06T09:51:43.223Z,948
2017-02-06T09:52:53.087Z,952
2017-02-06T09:54:03.588Z,980
2017-02-06T09:55:13.834Z,984
2017-02-06T09:56:24.475Z,984
2017-02-06T09:57:34.327Z,984
2017-02-06T09:58:44.567Z,1000
2017-02-06T09:59:55.091Z,1012
2017-02-06T10:01:04.964Z,1016
2017-02-06T10:02:14.830Z,1028
2017-02-06T10:03:25.087Z,1052
2017-02-06T10:04:34.955Z,1076
2017-02-06T10:05:45.496Z,1112
2017-02-06T10:06:55.352Z,1152
2017-02-06T10:08:05.744Z,1176
2017-02-06T10:09:15.623Z,1196
2017-02-06T10:10:26.341Z,1208
2017-02-06T10:11:36.849Z,1212
2017-02-06T10:12:46.754Z,1220
2017-02-06T10:13:57.413Z,1224
2017-02-06T10:15:07.663Z,1216
2017-02-06T10:16:18.309Z,1216
2017-02-06T10:17:28.798Z,1224
2017-02-06T10:18:39.437Z,1240
2017-02-06T10:19:48.928Z,1240
2017-02-06T10:20:58.794Z,1232
2017-02-06T10:22:09.046Z,1220
2017-02-06T10:23:19.939Z,1212
2017-02-06T10:24:30.202Z,1216
2017-02-06T10:25:40.452Z,1216
2017-02-06T10:26:50.712Z,1216
2017-02-06T10:28:00.182Z,1224
2017-02-06T10:29:11.095Z,1228
2017-02-06T10:30:21.729Z,1240
2017-02-06T10:31:31.995Z,1256
2017-02-06T10:32:42.637Z,1288
2017-02-06T10:33:52.258Z,1304
2017-02-06T10:35:02.792Z,1320
2017-02-06T10:36:12.668Z,1332
2017-02-06T10:37:22.922Z,1312
2017-02-06T10:38:33.176Z,1284
2017-02-06T10:39:43.423Z,1256
2017-02-06T10:40:53.821Z,1252
2017-02-06T10:42:04.476Z,1264
2017-02-06T10:43:14.350Z,1288
2017-02-06T10:44:24.983Z,1308
2017-02-06T10:45:35.248Z,1336
2017-02-06T10:46:46.129Z,1336
2017-02-06T10:47:56.774Z,1340
2017-02-06T10:49:07.034Z,1312
2017-02-06T10:50:17.280Z,1304
2017-02-06T10:51:27.371Z,1300
2017-02-06T10:52:37.498Z,1308
2017-02-06T10:53:48.156Z,1308
2017-02-06T10:54:58.045Z,1292
2017-02-06T10:56:08.295Z,1296
2017-02-06T10:57:17.767Z,1300
2017-02-06T10:58:28.275Z,1316
2017-02-06T10:59:38.177Z,1344
2017-02-06T11:00:48.048Z,1360
2017-02-06T11:01:58.710Z,1372
2017-02-06T11:03:08.575Z,1372
2017-02-06T11:04:18.785Z,1384
2017-02-06T11:05:29.446Z,1396
2017-02-06T11:06:40.151Z,1404
2017-02-06T11:07:50.808Z,1408
2017-02-06T11:09:01.444Z,1408
2017-02-06T11:10:11.849Z,1412
2017-02-06T11:11:22.506Z,1432
2017-02-06T11:12:32.777Z,1448
2017-02-06T11:13:43.431Z,1468
2017-02-06T11:14:53.713Z,1484
2017-02-06T11:16:04.219Z,1492
2017-02-06T11:17:14.121Z,1504
2017-02-06T11:18:24.776Z,1520
2017-02-06T11:19:35.035Z,1520
2017-02-06T11:20:45.312Z,1512
2017-02-06T11:21:56.216Z,1504
2017-02-06T11:23:05.692Z,1512
2017-02-06T11:24:15.969Z,1516
2017-02-06T11:25:26.229Z,1512
2017-02-06T11:26:36.893Z,1492
2017-02-06T11:27:47.049Z,1476
2017-02-06T11:28:57.315Z,1444
2017-02-06T11:30:07.560Z,1404
2017-02-06T11:31:18.218Z,1376
2017-02-06T11:32:28.460Z,1348
2017-02-06T11:33:38.219Z,1324
2017-02-06T11:34:48.090Z,1312
2017-02-06T11:35:58.751Z,1308
2017-02-06T11:37:09.048Z,1304
2017-02-06T11:38:19.310Z,1304
2017-02-06T11:39:29.862Z,1312
2017-02-06T11:40:40.501Z,1320
2017-02-06T11:41:50.527Z,1320
2017-02-06T11:43:00.386Z,1308
2017-02-06T11:44:10.638Z,1304
2017-02-06T11:45:21.148Z,1296
2017-02-06T11:46:31.426Z,1292
2017-02-06T11:47:41.811Z,1292
2017-02-06T11:48:52.064Z,1304
2017-02-06T11:50:02.697Z,1320
2017-02-06T11:51:12.797Z,1328
2017-02-06T11:52:23.473Z,1336
2017-02-06T11:53:34.130Z,1340
2017-02-06T11:54:44.400Z,1344
2017-02-06T11:55:55.056Z,1360
2017-02-06T11:57:06.022Z,1376
2017-02-06T11:58:16.698Z,1388
2017-02-06T11:59:26.968Z,1396
2017-02-06T12:00:37.611Z,1396
2017-02-06T12:01:47.875Z,1384
2017-02-06T12:02:57.979Z,1368
2017-02-06T12:04:07.836Z,1356
2017-02-06T12:05:18.474Z,1332
2017-02-06T12:06:28.732Z,1316
2017-02-06T12:07:38.597Z,1308
2017-02-06T12:08:48.721Z,1308
2017-02-06T12:09:59.378Z,1308
2017-02-06T12:11:09.235Z,1312
2017-02-06T12:12:19.114Z,1320
2017-02-06T12:13:29.353Z,1336
2017-02-06T12:14:40.424Z,1360
2017-02-06T12:15:51.146Z,1384
2017-02-06T12:17:01.416Z,1396
2017-02-06T12:18:11.687Z,1392
2017-02-06T12:19:22.233Z,1376
2017-02-06T12:20:32.756Z,1340
2017-02-06T12:21:42.998Z,1312
2017-02-06T12:22:52.858Z,1288
2017-02-06T12:24:02.711Z,1280
2017-02-06T12:25:12.584Z,1276
2017-02-06T12:26:23.095Z,1284
2017-02-06T12:27:34.145Z,1292
2017-02-06T12:28:45.458Z,1288
2017-02-06T12:29:54.943Z,1296
2017-02-06T12:31:04.822Z,1308
2017-02-06T12:32:15.337Z,1320
2017-02-06T12:33:24.812Z,1328
2017-02-06T12:34:34.682Z,1328
2017-02-06T12:35:44.927Z,1324
2017-02-06T12:36:55.178Z,1332
2017-02-06T12:38:06.087Z,1348
2017-02-06T12:39:15.942Z,1376
2017-02-06T12:40:25.811Z,1396
2017-02-06T12:41:36.061Z,1400
2017-02-06T12:42:46.306Z,1372
2017-02-06T12:43:56.800Z,1332
2017-02-06T12:45:07.043Z,1276
2017-02-06T12:46:17.317Z,1228
2017-02-06T12:47:27.958Z,1188
2017-02-06T12:48:38.613Z,1160
2017-02-06T12:49:49.560Z,1156
2017-02-06T12:50:59.822Z,1168
2017-02-06T12:52:10.103Z,1196
2017-02-06T12:53:20.350Z,1184
2017-02-06T12:54:30.658Z,1208
2017-02-06T12:55:41.215Z,1220
2017-02-06T12:56:51.081Z,1236
2017-02-06T12:58:01.724Z,1252
2017-02-06T12:59:12.027Z,1256
2017-02-06T13:00:22.681Z,1256
2017-02-06T13:01:33.084Z,1280
2017-02-06T13:02:43.350Z,1300
2017-02-06T13:03:53.999Z,1304
2017-02-06T13:05:03.865Z,1304
2017-02-06T13:06:14.120Z,1308
2017-02-06T13:07:25.060Z,1264
2017-02-06T13:08:35.308Z,1244
2017-02-06T13:09:45.565Z,1204
2017-02-06T13:10:55.841Z,1168
2017-02-06T13:12:06.102Z,1128
2017-02-06T13:13:17.009Z,1096
2017-02-06T13:14:27.263Z,1060
2017-02-06T13:15:37.929Z,1040
2017-02-06T13:16:48.567Z,1012
2017-02-06T13:17:58.500Z,996
2017-02-06T13:19:09.010Z,976
2017-02-06T13:20:19.675Z,968
2017-02-06T13:21:30.322Z,972
2017-02-06T13:22:40.253Z,964
2017-02-06T13:23:50.923Z,960
2017-02-06T13:25:01.829Z,968
2017-02-06T13:26:11.683Z,980
2017-02-06T13:27:21.187Z,1004
2017-02-06T13:28:31.446Z,1020
2017-02-06T13:29:41.298Z,1028
2017-02-06T13:30:51.795Z,1032
2017-02-06T13:32:02.472Z,1036
2017-02-06T13:33:13.243Z,1032
2017-02-06T13:34:23.142Z,1024
2017-02-06T13:35:33.782Z,984
2017-02-06T13:36:44.696Z,964
2017-02-06T13:37:55.332Z,896
2017-02-06T13:39:05.584Z,916
2017-02-06T13:40:16.554Z,872
2017-02-06T13:41:27.193Z,800
2017-02-06T13:42:37.289Z,764
2017-02-06T13:43:47.938Z,744
2017-02-06T13:44:58.096Z,732
2017-02-06T13:46:08.742Z,672
2017-02-06T13:47:19.382Z,648
2017-02-06T13:48:29.490Z,616
2017-02-06T13:49:39.744Z,596
2017-02-06T13:50:49.985Z,588
2017-02-06T13:52:00.621Z,580
2017-02-06T13:53:10.482Z,580
2017-02-06T13:54:20.990Z,588
2017-02-06T13:55:31.271Z,596
2017-02-06T13:56:41.923Z,596
2017-02-06T13:57:52.174Z,596
2017-02-06T13:59:02.066Z,604
2017-02-06T14:00:13.053Z,616
2017-02-06T14:01:23.702Z,640
2017-02-06T14:02:33.574Z,652
2017-02-06T14:03:43.870Z,676
2017-02-06T14:04:53.723Z,680
2017-02-06T14:06:04.617Z,696
2017-02-06T14:07:14.476Z,708
2017-02-06T14:08:25.112Z,728
2017-02-06T14:09:35.353Z,756
2017-02-06T14:10:45.604Z,784
2017-02-06T14:11:55.730Z,808
2017-02-06T14:13:06.375Z,836
2017-02-06T14:14:16.624Z,860
2017-02-06T14:15:26.117Z,868
2017-02-06T14:16:36.396Z,876
2017-02-06T14:17:46.894Z,884
2017-02-06T14:18:57.536Z,888
2017-02-06T14:20:07.413Z,888
2017-02-06T14:21:17.656Z,884
2017-02-06T14:22:27.128Z,880
2017-02-06T14:23:38.031Z,872
2017-02-06T14:24:47.888Z,864
2017-02-06T14:25:57.804Z,856
2017-02-06T14:27:08.052Z,848
2017-02-06T14:28:18.756Z,852
2017-02-06T14:29:29.653Z,828
2017-02-06T14:30:39.944Z,832
2017-02-06T14:31:50.192Z,816
2017-02-06T14:33:01.138Z,816
2017-02-06T14:34:11.399Z,812
2017-02-06T14:35:21.955Z,812
2017-02-06T14:36:31.824Z,816
2017-02-06T14:37:42.469Z,824
2017-02-06T14:38:52.747Z,824
2017-02-06T14:40:02.999Z,824
2017-02-06T14:41:13.022Z,824
2017-02-06T14:42:23.277Z,824
2017-02-06T14:43:33.523Z,828
2017-02-06T14:44:44.162Z,836
2017-02-06T14:45:54.801Z,840
2017-02-06T14:47:05.320Z,848
2017-02-06T14:48:15.565Z,856
2017-02-06T14:49:26.226Z,868
2017-02-06T14:50:36.778Z,888
2017-02-06T14:51:46.644Z,908
2017-02-06T14:52:57.205Z,924
2017-02-06T14:54:07.467Z,908
2017-02-06T14:55:18.155Z,896
2017-02-06T14:56:28.808Z,884
2017-02-06T14:57:39.074Z,848
2017-02-06T14:59:58.523Z,756
2017-02-06T15:01:09.165Z,708
2017-02-06T15:02:19.018Z,664
2017-02-06T15:03:29.656Z,620
2017-02-06T15:04:40.166Z,584
2017-02-06T15:05:50.805Z,552
2017-02-06T15:07:01.077Z,520
2017-02-06T15:08:11.730Z,496
2017-02-06T15:09:22.387Z,472
2017-02-06T15:10:33.221Z,456
2017-02-06T15:11:44.170Z,440
2017-02-06T15:12:54.432Z,424
2017-02-06T15:14:04.684Z,412
2017-02-06T15:15:14.153Z,400
2017-02-06T15:16:24.277Z,392
2017-02-06T15:17:34.944Z,380
2017-02-06T15:18:45.202Z,372
2017-02-06T15:19:54.707Z,368
2017-02-06T15:21:05.350Z,364
2017-02-06T15:22:15.449Z,360
2017-02-06T15:23:25.694Z,356
2017-02-06T15:24:36.000Z,348
2017-02-06T15:25:45.867Z,344
2017-02-06T15:26:56.511Z,340
2017-02-06T15:28:07.010Z,336
2017-02-06T15:29:17.279Z,332
2017-02-06T15:30:27.939Z,328
2017-02-06T15:31:37.788Z,328
2017-02-06T15:32:48.422Z,332
2017-02-06T15:33:58.561Z,332
2017-02-06T15:35:09.193Z,336
2017-02-06T15:36:19.827Z,336
2017-02-06T15:37:30.094Z,336
2017-02-06T15:38:40.340Z,328
2017-02-06T15:39:51.242Z,320
2017-02-06T15:41:01.879Z,312
2017-02-06T15:42:11.745Z,300
2017-02-06T15:43:21.993Z,292
2017-02-06T15:44:32.633Z,280
2017-02-06T15:45:43.580Z,268
2017-02-06T15:46:53.852Z,260
2017-02-06T15:48:04.484Z,256
2017-02-06T15:49:14.547Z,248
2017-02-06T15:50:24.799Z,240
2017-02-06T15:51:35.693Z,236
2017-02-06T15:52:45.975Z,228
2017-02-06T15:53:55.836Z,216
2017-02-06T15:55:06.104Z,208
2017-02-06T15:56:16.749Z,200
2017-02-06T15:57:27.257Z,188
2017-02-06T15:58:37.126Z,188
2017-02-06T15:59:47.764Z,184
2017-02-06T16:00:58.313Z,180
2017-02-06T16:02:08.963Z,176
2017-02-06T16:03:19.478Z,172
2017-02-06T16:04:30.137Z,164
2017-02-06T16:05:40.810Z,160
2017-02-06T16:06:51.462Z,156
2017-02-06T16:08:01.352Z,148
2017-02-06T16:09:11.863Z,148
2017-02-06T16:10:22.535Z,140
2017-02-06T16:11:32.407Z,136
2017-02-06T16:12:42.680Z,128
2017-02-06T16:13:52.948Z,124
2017-02-06T16:15:03.462Z,112
2017-02-06T16:16:13.721Z,108
2017-02-06T16:17:23.994Z,100
2017-02-06T16:18:34.237Z,88
2017-02-06T16:19:44.489Z,80
2017-02-06T16:20:55.379Z,72
2017-02-06T16:22:05.635Z,64
2017-02-06T16:23:15.903Z,60
2017-02-06T16:24:26.563Z,56
2017-02-06T16:25:37.225Z,48
2017-02-06T16:26:48.121Z,44
2017-02-06T16:27:58.781Z,40
2017-02-06T16:29:09.436Z,36
2017-02-06T16:30:20.071Z,32
2017-02-06T16:31:30.735Z,28